sensor_id;sensor_type;location;lat;lon;timestamp;temperature;humidity
16271;DHT22;8243;49.048;8.396;2023-04-03T00:01:03;5.30;47.20
16271;DHT22;8243;49.048;8.396;2023-04-03T00:03:29;5.30;48.20
16271;DHT22;8243;49.048;8.396;2023-04-03T00:05:55;5.30;48.50
16271;DHT22;8243;49.048;8.396;2023-04-03T00:08:21;5.30;48.70
16271;DHT22;8243;49.048;8.396;2023-04-03T00:10:46;5.20;48.30
16271;DHT22;8243;49.048;8.396;2023-04-03T00:13:12;5.30;48.40
16271;DHT22;8243;49.048;8.396;2023-04-03T00:15:38;5.20;49.60
16271;DHT22;8243;49.048;8.396;2023-04-03T00:18:05;5.20;49.30
16271;DHT22;8243;49.048;8.396;2023-04-03T00:20:31;5.30;49.60
16271;DHT22;8243;49.048;8.396;2023-04-03T00:22:57;4.90;49.10
16271;DHT22;8243;49.048;8.396;2023-04-03T00:25:23;5.00;49.10
16271;DHT22;8243;49.048;8.396;2023-04-03T00:27:48;5.10;49.30
16271;DHT22;8243;49.048;8.396;2023-04-03T00:30:17;5.30;49.70
16271;DHT22;8243;49.048;8.396;2023-04-03T00:32:43;5.20;49.30
16271;DHT22;8243;49.048;8.396;2023-04-03T00:35:08;5.20;49.90
16271;DHT22;8243;49.048;8.396;2023-04-03T00:37:34;5.30;50.00
16271;DHT22;8243;49.048;8.396;2023-04-03T00:40:01;5.20;49.60
16271;DHT22;8243;49.048;8.396;2023-04-03T00:42:26;5.20;49.80
16271;DHT22;8243;49.048;8.396;2023-04-03T00:47:26;5.30;49.00
16271;DHT22;8243;49.048;8.396;2023-04-03T00:49:52;5.30;48.00
16271;DHT22;8243;49.048;8.396;2023-04-03T00:52:21;5.30;48.10
16271;DHT22;8243;49.048;8.396;2023-04-03T00:54:49;5.20;47.70
16271;DHT22;8243;49.048;8.396;2023-04-03T00:57:17;5.30;47.80
16271;DHT22;8243;49.048;8.396;2023-04-03T00:59:47;5.00;47.00
16271;DHT22;8243;49.048;8.396;2023-04-03T01:02:14;5.20;47.50
16271;DHT22;8243;49.048;8.396;2023-04-03T01:04:42;5.20;47.40
16271;DHT22;8243;49.048;8.396;2023-04-03T01:09:35;5.20;47.50
16271;DHT22;8243;49.048;8.396;2023-04-03T01:12:22;5.20;48.20
16271;DHT22;8243;49.048;8.396;2023-04-03T01:14:54;5.10;48.00
16271;DHT22;8243;49.048;8.396;2023-04-03T01:17:35;5.10;48.50
16271;DHT22;8243;49.048;8.396;2023-04-03T01:25:36;5.00;48.60
16271;DHT22;8243;49.048;8.396;2023-04-03T01:28:04;5.20;49.10
16271;DHT22;8243;49.048;8.396;2023-04-03T01:30:34;4.90;48.70
16271;DHT22;8243;49.048;8.396;2023-04-03T01:33:01;4.70;48.90
16271;DHT22;8243;49.048;8.396;2023-04-03T01:35:27;5.00;49.40
16271;DHT22;8243;49.048;8.396;2023-04-03T01:37:52;4.70;49.60
16271;DHT22;8243;49.048;8.396;2023-04-03T01:40:18;5.00;50.50
16271;DHT22;8243;49.048;8.396;2023-04-03T01:42:43;4.80;50.90
16271;DHT22;8243;49.048;8.396;2023-04-03T01:45:09;4.70;51.50
16271;DHT22;8243;49.048;8.396;2023-04-03T01:47:35;4.70;51.90
16271;DHT22;8243;49.048;8.396;2023-04-03T01:50:00;4.90;52.70
16271;DHT22;8243;49.048;8.396;2023-04-03T01:52:26;4.70;52.50
16271;DHT22;8243;49.048;8.396;2023-04-03T01:54:52;4.60;53.50
16271;DHT22;8243;49.048;8.396;2023-04-03T01:57:17;4.60;53.70
16271;DHT22;8243;49.048;8.396;2023-04-03T01:59:43;4.60;54.00
16271;DHT22;8243;49.048;8.396;2023-04-03T02:02:09;4.60;54.30
16271;DHT22;8243;49.048;8.396;2023-04-03T02:04:34;4.40;54.80
16271;DHT22;8243;49.048;8.396;2023-04-03T02:07:00;4.40;54.90
16271;DHT22;8243;49.048;8.396;2023-04-03T02:09:26;4.30;54.40
16271;DHT22;8243;49.048;8.396;2023-04-03T02:11:52;4.50;55.40
16271;DHT22;8243;49.048;8.396;2023-04-03T02:14:18;4.50;55.20
16271;DHT22;8243;49.048;8.396;2023-04-03T02:16:44;4.30;55.70
16271;DHT22;8243;49.048;8.396;2023-04-03T02:19:09;4.30;55.70
16271;DHT22;8243;49.048;8.396;2023-04-03T02:21:35;4.40;55.90
16271;DHT22;8243;49.048;8.396;2023-04-03T02:24:01;4.10;56.80
16271;DHT22;8243;49.048;8.396;2023-04-03T02:26:26;4.50;56.70
16271;DHT22;8243;49.048;8.396;2023-04-03T02:28:52;4.20;56.50
16271;DHT22;8243;49.048;8.396;2023-04-03T02:31:17;4.10;57.20
16271;DHT22;8243;49.048;8.396;2023-04-03T02:33:43;4.10;57.20
16271;DHT22;8243;49.048;8.396;2023-04-03T02:36:09;4.20;57.60
16271;DHT22;8243;49.048;8.396;2023-04-03T02:38:35;4.10;58.20
16271;DHT22;8243;49.048;8.396;2023-04-03T02:41:06;4.20;58.30
16271;DHT22;8243;49.048;8.396;2023-04-03T02:43:32;4.10;58.90
16271;DHT22;8243;49.048;8.396;2023-04-03T02:45:58;3.90;59.30
16271;DHT22;8243;49.048;8.396;2023-04-03T02:48:23;3.90;59.60
16271;DHT22;8243;49.048;8.396;2023-04-03T02:50:49;3.80;59.90
16271;DHT22;8243;49.048;8.396;2023-04-03T02:53:15;3.80;60.30
16271;DHT22;8243;49.048;8.396;2023-04-03T02:55:41;3.90;61.30
16271;DHT22;8243;49.048;8.396;2023-04-03T02:58:07;3.80;61.40
16271;DHT22;8243;49.048;8.396;2023-04-03T03:00:33;3.70;61.50
16271;DHT22;8243;49.048;8.396;2023-04-03T03:02:58;3.80;60.70
16271;DHT22;8243;49.048;8.396;2023-04-03T03:05:25;3.80;61.30
16271;DHT22;8243;49.048;8.396;2023-04-03T03:07:50;3.80;61.80
16271;DHT22;8243;49.048;8.396;2023-04-03T03:10:16;3.70;62.20
16271;DHT22;8243;49.048;8.396;2023-04-03T03:12:42;3.40;61.90
16271;DHT22;8243;49.048;8.396;2023-04-03T03:15:07;3.10;62.20
16271;DHT22;8243;49.048;8.396;2023-04-03T03:17:33;3.50;62.60
16271;DHT22;8243;49.048;8.396;2023-04-03T03:19:59;3.50;63.70
16271;DHT22;8243;49.048;8.396;2023-04-03T03:22:25;3.50;64.30
16271;DHT22;8243;49.048;8.396;2023-04-03T03:24:51;3.50;64.10
16271;DHT22;8243;49.048;8.396;2023-04-03T03:27:16;3.40;64.60
16271;DHT22;8243;49.048;8.396;2023-04-03T03:29:42;3.50;65.10
16271;DHT22;8243;49.048;8.396;2023-04-03T03:32:08;3.40;65.50
16271;DHT22;8243;49.048;8.396;2023-04-03T03:34:33;3.50;64.70
16271;DHT22;8243;49.048;8.396;2023-04-03T03:36:59;3.40;65.40
16271;DHT22;8243;49.048;8.396;2023-04-03T03:39:24;3.40;65.20
16271;DHT22;8243;49.048;8.396;2023-04-03T03:41:50;3.40;65.30
16271;DHT22;8243;49.048;8.396;2023-04-03T03:44:16;3.50;65.50
16271;DHT22;8243;49.048;8.396;2023-04-03T03:46:41;3.50;65.50
16271;DHT22;8243;49.048;8.396;2023-04-03T03:49:07;3.50;66.50
16271;DHT22;8243;49.048;8.396;2023-04-03T03:51:33;3.30;66.60
16271;DHT22;8243;49.048;8.396;2023-04-03T03:53:58;3.60;66.70
16271;DHT22;8243;49.048;8.396;2023-04-03T03:56:24;3.40;66.20
16271;DHT22;8243;49.048;8.396;2023-04-03T03:58:50;3.50;66.50
16271;DHT22;8243;49.048;8.396;2023-04-03T04:01:16;3.70;67.00
16271;DHT22;8243;49.048;8.396;2023-04-03T04:03:42;3.50;67.10
16271;DHT22;8243;49.048;8.396;2023-04-03T04:06:08;3.70;67.30
16271;DHT22;8243;49.048;8.396;2023-04-03T04:08:33;3.60;67.20
16271;DHT22;8243;49.048;8.396;2023-04-03T04:10:59;3.50;67.20
16271;DHT22;8243;49.048;8.396;2023-04-03T04:13:24;3.60;68.10
16271;DHT22;8243;49.048;8.396;2023-04-03T04:15:50;3.60;67.80
16271;DHT22;8243;49.048;8.396;2023-04-03T04:18:15;3.50;68.30
16271;DHT22;8243;49.048;8.396;2023-04-03T04:20:41;3.40;68.50
16271;DHT22;8243;49.048;8.396;2023-04-03T04:23:07;3.50;67.90
16271;DHT22;8243;49.048;8.396;2023-04-03T04:25:32;3.50;67.70
16271;DHT22;8243;49.048;8.396;2023-04-03T04:27:58;3.60;69.30
16271;DHT22;8243;49.048;8.396;2023-04-03T04:30:23;3.50;69.00
16271;DHT22;8243;49.048;8.396;2023-04-03T04:32:49;3.40;68.90
16271;DHT22;8243;49.048;8.396;2023-04-03T04:35:15;3.50;69.00
16271;DHT22;8243;49.048;8.396;2023-04-03T04:37:40;3.60;69.70
16271;DHT22;8243;49.048;8.396;2023-04-03T04:40:07;3.50;69.70
16271;DHT22;8243;49.048;8.396;2023-04-03T04:42:32;3.50;70.00
16271;DHT22;8243;49.048;8.396;2023-04-03T04:44:58;3.70;69.60
16271;DHT22;8243;49.048;8.396;2023-04-03T04:47:23;3.80;70.00
16271;DHT22;8243;49.048;8.396;2023-04-03T04:49:49;3.70;70.10
16271;DHT22;8243;49.048;8.396;2023-04-03T04:52:15;3.40;70.00
16271;DHT22;8243;49.048;8.396;2023-04-03T04:54:41;3.40;71.10
16271;DHT22;8243;49.048;8.396;2023-04-03T04:57:06;3.50;71.90
16271;DHT22;8243;49.048;8.396;2023-04-03T04:59:32;3.40;73.40
16271;DHT22;8243;49.048;8.396;2023-04-03T05:01:58;3.40;73.30
16271;DHT22;8243;49.048;8.396;2023-04-03T05:04:23;3.10;73.70
16271;DHT22;8243;49.048;8.396;2023-04-03T05:06:49;3.30;73.50
16271;DHT22;8243;49.048;8.396;2023-04-03T05:09:15;3.30;72.30
16271;DHT22;8243;49.048;8.396;2023-04-03T05:11:40;3.10;71.90
16271;DHT22;8243;49.048;8.396;2023-04-03T05:14:06;3.00;71.40
16271;DHT22;8243;49.048;8.396;2023-04-03T05:16:32;3.20;70.90
16271;DHT22;8243;49.048;8.396;2023-04-03T05:18:58;3.20;71.10
16271;DHT22;8243;49.048;8.396;2023-04-03T05:21:23;3.10;70.30
16271;DHT22;8243;49.048;8.396;2023-04-03T05:23:51;3.00;69.10
16271;DHT22;8243;49.048;8.396;2023-04-03T05:26:17;3.30;69.10
16271;DHT22;8243;49.048;8.396;2023-04-03T05:28:43;3.20;68.70
16271;DHT22;8243;49.048;8.396;2023-04-03T05:31:08;3.20;68.80
16271;DHT22;8243;49.048;8.396;2023-04-03T05:33:34;3.10;68.60
16271;DHT22;8243;49.048;8.396;2023-04-03T05:36:03;3.10;68.10
16271;DHT22;8243;49.048;8.396;2023-04-03T05:38:29;3.10;68.60
16271;DHT22;8243;49.048;8.396;2023-04-03T05:40:55;3.30;68.80
16271;DHT22;8243;49.048;8.396;2023-04-03T05:43:20;3.20;68.90
16271;DHT22;8243;49.048;8.396;2023-04-03T05:45:47;3.20;68.90
16271;DHT22;8243;49.048;8.396;2023-04-03T05:48:13;3.10;68.20
16271;DHT22;8243;49.048;8.396;2023-04-03T05:50:38;3.30;69.70
16271;DHT22;8243;49.048;8.396;2023-04-03T05:53:07;3.10;68.40
16271;DHT22;8243;49.048;8.396;2023-04-03T05:55:37;3.20;68.70
16271;DHT22;8243;49.048;8.396;2023-04-03T05:58:03;3.40;67.90
16271;DHT22;8243;49.048;8.396;2023-04-03T06:00:28;3.30;68.00
16271;DHT22;8243;49.048;8.396;2023-04-03T06:02:54;3.30;68.20
16271;DHT22;8243;49.048;8.396;2023-04-03T06:05:19;3.40;69.10
16271;DHT22;8243;49.048;8.396;2023-04-03T06:07:45;3.40;67.30
16271;DHT22;8243;49.048;8.396;2023-04-03T06:10:12;3.40;66.30
16271;DHT22;8243;49.048;8.396;2023-04-03T06:12:38;3.30;65.70
16271;DHT22;8243;49.048;8.396;2023-04-03T06:15:05;3.30;65.50
16271;DHT22;8243;49.048;8.396;2023-04-03T06:17:30;3.70;65.60
16271;DHT22;8243;49.048;8.396;2023-04-03T06:19:56;3.60;64.60
16271;DHT22;8243;49.048;8.396;2023-04-03T06:22:23;3.70;63.50
16271;DHT22;8243;49.048;8.396;2023-04-03T06:24:50;4.20;62.60
16271;DHT22;8243;49.048;8.396;2023-04-03T06:27:16;4.20;61.00
16271;DHT22;8243;49.048;8.396;2023-04-03T06:29:42;4.20;60.70
16271;DHT22;8243;49.048;8.396;2023-04-03T06:32:08;4.30;61.00
16271;DHT22;8243;49.048;8.396;2023-04-03T06:34:34;4.30;60.70
16271;DHT22;8243;49.048;8.396;2023-04-03T06:36:59;4.70;57.40
16271;DHT22;8243;49.048;8.396;2023-04-03T06:39:25;4.80;56.00
16271;DHT22;8243;49.048;8.396;2023-04-03T06:41:51;5.20;53.20
16271;DHT22;8243;49.048;8.396;2023-04-03T06:44:17;5.20;52.60
16271;DHT22;8243;49.048;8.396;2023-04-03T06:46:43;5.00;52.10
16271;DHT22;8243;49.048;8.396;2023-04-03T06:49:09;5.00;52.80
16271;DHT22;8243;49.048;8.396;2023-04-03T06:51:35;5.60;51.50
16271;DHT22;8243;49.048;8.396;2023-04-03T06:54:02;6.40;45.20
16271;DHT22;8243;49.048;8.396;2023-04-03T06:56:28;6.20;43.60
16271;DHT22;8243;49.048;8.396;2023-04-03T06:58:55;5.90;44.30
16271;DHT22;8243;49.048;8.396;2023-04-03T07:01:24;6.40;43.80
16271;DHT22;8243;49.048;8.396;2023-04-03T07:03:50;6.50;41.60
16271;DHT22;8243;49.048;8.396;2023-04-03T07:06:16;7.20;39.90
16271;DHT22;8243;49.048;8.396;2023-04-03T07:08:43;7.60;35.40
16271;DHT22;8243;49.048;8.396;2023-04-03T07:11:09;8.00;33.40
16271;DHT22;8243;49.048;8.396;2023-04-03T07:13:35;7.00;34.50
16271;DHT22;8243;49.048;8.396;2023-04-03T07:16:02;6.60;36.70
16271;DHT22;8243;49.048;8.396;2023-04-03T07:18:29;6.20;38.80
16271;DHT22;8243;49.048;8.396;2023-04-03T07:20:54;6.40;39.30
16271;DHT22;8243;49.048;8.396;2023-04-03T07:23:23;7.00;37.10
16271;DHT22;8243;49.048;8.396;2023-04-03T07:25:50;6.90;36.10
16271;DHT22;8243;49.048;8.396;2023-04-03T07:28:17;7.20;36.10
16271;DHT22;8243;49.048;8.396;2023-04-03T07:30:48;7.90;34.80
16271;DHT22;8243;49.048;8.396;2023-04-03T07:33:16;8.80;31.00
16271;DHT22;8243;49.048;8.396;2023-04-03T07:35:43;8.80;29.10
16271;DHT22;8243;49.048;8.396;2023-04-03T07:38:09;8.90;29.10
16271;DHT22;8243;49.048;8.396;2023-04-03T07:40:36;9.10;28.00
16271;DHT22;8243;49.048;8.396;2023-04-03T07:43:02;8.80;27.60
16271;DHT22;8243;49.048;8.396;2023-04-03T07:45:28;8.50;28.30
16271;DHT22;8243;49.048;8.396;2023-04-03T07:47:54;9.00;27.20
16271;DHT22;8243;49.048;8.396;2023-04-03T07:50:19;9.30;26.10
16271;DHT22;8243;49.048;8.396;2023-04-03T07:52:45;8.60;26.90
16271;DHT22;8243;49.048;8.396;2023-04-03T07:55:11;8.20;27.70
16271;DHT22;8243;49.048;8.396;2023-04-03T07:57:37;8.50;27.50
16271;DHT22;8243;49.048;8.396;2023-04-03T08:00:06;8.80;27.20
16271;DHT22;8243;49.048;8.396;2023-04-03T08:02:32;9.70;25.70
16271;DHT22;8243;49.048;8.396;2023-04-03T08:04:58;9.00;25.60
16271;DHT22;8243;49.048;8.396;2023-04-03T08:07:24;9.40;25.30
16271;DHT22;8243;49.048;8.396;2023-04-03T08:09:52;9.80;24.00
16271;DHT22;8243;49.048;8.396;2023-04-03T08:12:18;9.90;23.40
16271;DHT22;8243;49.048;8.396;2023-04-03T08:14:43;9.90;23.70
16271;DHT22;8243;49.048;8.396;2023-04-03T08:17:09;10.30;22.30
16271;DHT22;8243;49.048;8.396;2023-04-03T08:19:38;9.80;23.10
16271;DHT22;8243;49.048;8.396;2023-04-03T08:22:04;9.10;23.70
16271;DHT22;8243;49.048;8.396;2023-04-03T08:24:31;9.30;23.50
16271;DHT22;8243;49.048;8.396;2023-04-03T08:26:57;8.80;24.70
16271;DHT22;8243;49.048;8.396;2023-04-03T08:29:24;9.00;24.50
16271;DHT22;8243;49.048;8.396;2023-04-03T08:31:50;9.20;24.20
16271;DHT22;8243;49.048;8.396;2023-04-03T08:34:16;9.30;23.80
16271;DHT22;8243;49.048;8.396;2023-04-03T08:36:42;8.70;25.00
16271;DHT22;8243;49.048;8.396;2023-04-03T08:39:09;9.00;23.90
16271;DHT22;8243;49.048;8.396;2023-04-03T08:41:37;8.90;24.50
16271;DHT22;8243;49.048;8.396;2023-04-03T08:47:26;8.50;23.40
16271;DHT22;8243;49.048;8.396;2023-04-03T08:49:58;8.00;23.90
16271;DHT22;8243;49.048;8.396;2023-04-03T08:58:05;7.10;25.30
16271;DHT22;8243;49.048;8.396;2023-04-03T09:00:49;7.50;24.70
16271;DHT22;8243;49.048;8.396;2023-04-03T09:03:18;7.80;24.40
16271;DHT22;8243;49.048;8.396;2023-04-03T09:05:48;8.70;23.70
16271;DHT22;8243;49.048;8.396;2023-04-03T09:08:27;10.30;19.20
16271;DHT22;8243;49.048;8.396;2023-04-03T09:16:28;8.50;21.50
16271;DHT22;8243;49.048;8.396;2023-04-03T09:21:45;8.20;20.30
16271;DHT22;8243;49.048;8.396;2023-04-03T09:24:14;8.00;21.30
16271;DHT22;8243;49.048;8.396;2023-04-03T09:26:48;8.60;20.70
16271;DHT22;8243;49.048;8.396;2023-04-03T09:29:21;10.20;17.40
16271;DHT22;8243;49.048;8.396;2023-04-03T09:31:49;10.60;15.10
16271;DHT22;8243;49.048;8.396;2023-04-03T09:34:31;10.60;14.70
16271;DHT22;8243;49.048;8.396;2023-04-03T09:36:59;9.80;15.40
16271;DHT22;8243;49.048;8.396;2023-04-03T09:39:31;9.20;16.60
16271;DHT22;8243;49.048;8.396;2023-04-03T09:44:32;9.10;17.60
16271;DHT22;8243;49.048;8.396;2023-04-03T09:46:59;9.30;16.90
16271;DHT22;8243;49.048;8.396;2023-04-03T09:49:25;9.10;16.40
16271;DHT22;8243;49.048;8.396;2023-04-03T09:51:51;8.90;16.20
16271;DHT22;8243;49.048;8.396;2023-04-03T09:54:32;9.80;16.20
16271;DHT22;8243;49.048;8.396;2023-04-03T09:57:13;10.10;13.10
16271;DHT22;8243;49.048;8.396;2023-04-03T09:59:46;10.50;13.20
16271;DHT22;8243;49.048;8.396;2023-04-03T10:04:41;10.50;12.40
16271;DHT22;8243;49.048;8.396;2023-04-03T10:07:28;10.30;12.40
16271;DHT22;8243;49.048;8.396;2023-04-03T10:09:59;9.60;12.70
16271;DHT22;8243;49.048;8.396;2023-04-03T10:12:27;9.40;13.00
16271;DHT22;8243;49.048;8.396;2023-04-03T10:17:32;9.10;13.70
16271;DHT22;8243;49.048;8.396;2023-04-03T10:20:30;9.40;12.70
16271;DHT22;8243;49.048;8.396;2023-04-03T10:26:08;10.00;10.90
16271;DHT22;8243;49.048;8.396;2023-04-03T10:28:42;9.90;11.80
16271;DHT22;8243;49.048;8.396;2023-04-03T10:31:13;9.50;12.60
16271;DHT22;8243;49.048;8.396;2023-04-03T10:42:53;8.80;12.60
16271;DHT22;8243;49.048;8.396;2023-04-03T10:54:12;8.50;12.10
16271;DHT22;8243;49.048;8.396;2023-04-03T10:56:48;8.60;12.80
16271;DHT22;8243;49.048;8.396;2023-04-03T10:59:42;8.80;12.00
16271;DHT22;8243;49.048;8.396;2023-04-03T11:02:31;8.80;12.30
16271;DHT22;8243;49.048;8.396;2023-04-03T11:05:07;8.90;12.40
16271;DHT22;8243;49.048;8.396;2023-04-03T11:07:48;8.90;11.30
16271;DHT22;8243;49.048;8.396;2023-04-03T11:10:23;8.90;10.30
16271;DHT22;8243;49.048;8.396;2023-04-03T11:13:20;8.90;11.00
16271;DHT22;8243;49.048;8.396;2023-04-03T11:15:49;8.90;10.70
16271;DHT22;8243;49.048;8.396;2023-04-03T11:18:34;8.90;10.60
16271;DHT22;8243;49.048;8.396;2023-04-03T11:21:13;8.90;10.50
16271;DHT22;8243;49.048;8.396;2023-04-03T11:23:41;8.90;10.70
16271;DHT22;8243;49.048;8.396;2023-04-03T11:26:15;8.90;11.30
16271;DHT22;8243;49.048;8.396;2023-04-03T11:28:42;9.00;11.40
16271;DHT22;8243;49.048;8.396;2023-04-03T11:31:15;9.20;10.60
16271;DHT22;8243;49.048;8.396;2023-04-03T11:34:04;9.10;10.80
16271;DHT22;8243;49.048;8.396;2023-04-03T11:36:37;9.10;10.80
16271;DHT22;8243;49.048;8.396;2023-04-03T11:41:40;8.70;12.20
16271;DHT22;8243;49.048;8.396;2023-04-03T11:44:35;8.80;12.10
16271;DHT22;8243;49.048;8.396;2023-04-03T11:47:06;9.10;12.60
16271;DHT22;8243;49.048;8.396;2023-04-03T11:50:04;9.10;12.20
16271;DHT22;8243;49.048;8.396;2023-04-03T12:13:43;9.10;11.50
16271;DHT22;8243;49.048;8.396;2023-04-03T12:24:33;8.80;11.60
16271;DHT22;8243;49.048;8.396;2023-04-03T12:32:06;8.70;11.50
16271;DHT22;8243;49.048;8.396;2023-04-03T12:37:54;8.80;11.70
16271;DHT22;8243;49.048;8.396;2023-04-03T12:40:53;9.00;11.30
16271;DHT22;8243;49.048;8.396;2023-04-03T12:46:03;9.40;10.50
16271;DHT22;8243;49.048;8.396;2023-04-03T12:48:31;9.10;10.70
16271;DHT22;8243;49.048;8.396;2023-04-03T12:50:58;9.10;10.60
16271;DHT22;8243;49.048;8.396;2023-04-03T12:53:31;9.10;9.80
16271;DHT22;8243;49.048;8.396;2023-04-03T12:56:27;9.10;10.10
16271;DHT22;8243;49.048;8.396;2023-04-03T12:58:55;9.00;10.30
16271;DHT22;8243;49.048;8.396;2023-04-03T13:01:24;8.90;10.50
16271;DHT22;8243;49.048;8.396;2023-04-03T13:03:55;9.20;10.50
16271;DHT22;8243;49.048;8.396;2023-04-03T13:06:38;9.10;11.00
16271;DHT22;8243;49.048;8.396;2023-04-03T13:09:05;9.20;11.70
16271;DHT22;8243;49.048;8.396;2023-04-03T13:11:36;9.30;11.30
16271;DHT22;8243;49.048;8.396;2023-04-03T13:14:12;8.80;11.60
16271;DHT22;8243;49.048;8.396;2023-04-03T13:16:39;8.60;11.50
16271;DHT22;8243;49.048;8.396;2023-04-03T13:19:14;8.60;12.20
16271;DHT22;8243;49.048;8.396;2023-04-03T13:21:40;8.70;12.20
16271;DHT22;8243;49.048;8.396;2023-04-03T13:24:06;8.80;11.60
16271;DHT22;8243;49.048;8.396;2023-04-03T13:26:33;8.70;11.90
16271;DHT22;8243;49.048;8.396;2023-04-03T13:29:07;8.80;11.50
16271;DHT22;8243;49.048;8.396;2023-04-03T13:31:36;9.00;11.80
16271;DHT22;8243;49.048;8.396;2023-04-03T13:34:09;8.90;11.60
16271;DHT22;8243;49.048;8.396;2023-04-03T13:36:53;8.90;11.30
16271;DHT22;8243;49.048;8.396;2023-04-03T13:39:29;9.10;11.20
16271;DHT22;8243;49.048;8.396;2023-04-03T13:42:00;9.00;10.20
16271;DHT22;8243;49.048;8.396;2023-04-03T13:44:44;9.00;10.50
16271;DHT22;8243;49.048;8.396;2023-04-03T13:49:39;8.90;10.30
16271;DHT22;8243;49.048;8.396;2023-04-03T13:54:55;8.90;11.10
16271;DHT22;8243;49.048;8.396;2023-04-03T13:57:21;8.80;11.60
16271;DHT22;8243;49.048;8.396;2023-04-03T13:59:47;8.70;11.00
16271;DHT22;8243;49.048;8.396;2023-04-03T14:02:32;8.70;11.30
16271;DHT22;8243;49.048;8.396;2023-04-03T14:05:00;8.70;11.80
16271;DHT22;8243;49.048;8.396;2023-04-03T14:07:28;8.60;12.20
16271;DHT22;8243;49.048;8.396;2023-04-03T14:09:55;8.40;12.40
16271;DHT22;8243;49.048;8.396;2023-04-03T14:12:32;8.40;12.80
16271;DHT22;8243;49.048;8.396;2023-04-03T14:15:01;8.60;12.60
16271;DHT22;8243;49.048;8.396;2023-04-03T14:17:27;8.60;13.00
16271;DHT22;8243;49.048;8.396;2023-04-03T14:19:54;8.80;12.40
16271;DHT22;8243;49.048;8.396;2023-04-03T14:22:24;8.70;12.50
16271;DHT22;8243;49.048;8.396;2023-04-03T14:24:52;8.60;12.60
16271;DHT22;8243;49.048;8.396;2023-04-03T14:27:53;8.60;13.00
16271;DHT22;8243;49.048;8.396;2023-04-03T14:30:16;8.50;13.00
16271;DHT22;8243;49.048;8.396;2023-04-03T14:32:42;8.70;12.40
16271;DHT22;8243;49.048;8.396;2023-04-03T14:35:08;8.60;11.90
16271;DHT22;8243;49.048;8.396;2023-04-03T14:37:34;8.30;12.00
16271;DHT22;8243;49.048;8.396;2023-04-03T14:40:06;8.40;12.70
16271;DHT22;8243;49.048;8.396;2023-04-03T14:42:34;8.50;11.90
16271;DHT22;8243;49.048;8.396;2023-04-03T14:45:07;8.80;11.90
16271;DHT22;8243;49.048;8.396;2023-04-03T14:47:41;8.70;11.10
16271;DHT22;8243;49.048;8.396;2023-04-03T14:50:11;8.70;10.90
16271;DHT22;8243;49.048;8.396;2023-04-03T14:52:38;8.70;11.00
16271;DHT22;8243;49.048;8.396;2023-04-03T14:55:05;8.50;10.80
16271;DHT22;8243;49.048;8.396;2023-04-03T14:57:32;8.50;11.00
16271;DHT22;8243;49.048;8.396;2023-04-03T14:59:58;8.50;10.80
16271;DHT22;8243;49.048;8.396;2023-04-03T15:02:28;8.50;11.20
16271;DHT22;8243;49.048;8.396;2023-04-03T15:04:55;8.40;11.10
16271;DHT22;8243;49.048;8.396;2023-04-03T15:07:21;8.40;11.00
16271;DHT22;8243;49.048;8.396;2023-04-03T15:09:46;8.30;10.40
16271;DHT22;8243;49.048;8.396;2023-04-03T15:12:12;8.30;10.50
16271;DHT22;8243;49.048;8.396;2023-04-03T15:14:38;8.40;9.90
16271;DHT22;8243;49.048;8.396;2023-04-03T15:17:14;8.60;10.30
16271;DHT22;8243;49.048;8.396;2023-04-03T15:19:40;8.60;9.00
16271;DHT22;8243;49.048;8.396;2023-04-03T15:22:06;8.70;9.20
16271;DHT22;8243;49.048;8.396;2023-04-03T15:24:31;9.10;8.80
16271;DHT22;8243;49.048;8.396;2023-04-03T15:26:57;9.30;8.90
16271;DHT22;8243;49.048;8.396;2023-04-03T15:29:29;9.40;8.30
16271;DHT22;8243;49.048;8.396;2023-04-03T15:31:55;9.50;8.10
16271;DHT22;8243;49.048;8.396;2023-04-03T15:34:20;9.50;8.40
16271;DHT22;8243;49.048;8.396;2023-04-03T15:36:46;9.30;9.00
16271;DHT22;8243;49.048;8.396;2023-04-03T15:39:12;9.30;8.90
16271;DHT22;8243;49.048;8.396;2023-04-03T15:41:38;9.10;8.30
16271;DHT22;8243;49.048;8.396;2023-04-03T15:44:03;8.60;8.50
16271;DHT22;8243;49.048;8.396;2023-04-03T15:46:29;8.40;9.40
16271;DHT22;8243;49.048;8.396;2023-04-03T15:48:55;8.40;9.20
16271;DHT22;8243;49.048;8.396;2023-04-03T15:51:20;8.50;9.10
16271;DHT22;8243;49.048;8.396;2023-04-03T15:53:46;8.70;9.10
16271;DHT22;8243;49.048;8.396;2023-04-03T15:56:12;8.90;8.70
16271;DHT22;8243;49.048;8.396;2023-04-03T15:58:37;9.10;8.50
16271;DHT22;8243;49.048;8.396;2023-04-03T16:01:03;9.20;8.30
16271;DHT22;8243;49.048;8.396;2023-04-03T16:03:29;9.30;8.00
16271;DHT22;8243;49.048;8.396;2023-04-03T16:05:55;9.20;8.00
16271;DHT22;8243;49.048;8.396;2023-04-03T16:08:21;9.10;7.30
16271;DHT22;8243;49.048;8.396;2023-04-03T16:10:46;8.80;7.20
16271;DHT22;8243;49.048;8.396;2023-04-03T16:13:13;8.60;7.00
16271;DHT22;8243;49.048;8.396;2023-04-03T16:15:38;8.60;7.80
16271;DHT22;8243;49.048;8.396;2023-04-03T16:18:05;8.70;7.90
16271;DHT22;8243;49.048;8.396;2023-04-03T16:20:31;8.80;7.80
16271;DHT22;8243;49.048;8.396;2023-04-03T16:23:00;8.80;7.40
16271;DHT22;8243;49.048;8.396;2023-04-03T16:25:26;8.90;7.50
16271;DHT22;8243;49.048;8.396;2023-04-03T16:27:52;8.90;7.60
16271;DHT22;8243;49.048;8.396;2023-04-03T16:30:18;9.00;8.00
16271;DHT22;8243;49.048;8.396;2023-04-03T16:32:43;9.10;7.80
16271;DHT22;8243;49.048;8.396;2023-04-03T16:35:10;9.00;7.10
16271;DHT22;8243;49.048;8.396;2023-04-03T16:37:36;8.70;6.60
16271;DHT22;8243;49.048;8.396;2023-04-03T16:40:03;8.70;7.40
16271;DHT22;8243;49.048;8.396;2023-04-03T16:42:30;8.60;7.70
16271;DHT22;8243;49.048;8.396;2023-04-03T16:44:56;8.60;7.80
16271;DHT22;8243;49.048;8.396;2023-04-03T16:47:21;8.50;7.00
16271;DHT22;8243;49.048;8.396;2023-04-03T16:49:47;8.40;7.40
16271;DHT22;8243;49.048;8.396;2023-04-03T16:52:13;8.30;7.30
16271;DHT22;8243;49.048;8.396;2023-04-03T16:54:39;8.30;7.60
16271;DHT22;8243;49.048;8.396;2023-04-03T16:57:05;8.20;7.70
16271;DHT22;8243;49.048;8.396;2023-04-03T16:59:30;8.20;7.80
16271;DHT22;8243;49.048;8.396;2023-04-03T17:01:56;8.20;8.20
16271;DHT22;8243;49.048;8.396;2023-04-03T17:04:21;8.10;8.20
16271;DHT22;8243;49.048;8.396;2023-04-03T17:06:47;8.10;8.70
16271;DHT22;8243;49.048;8.396;2023-04-03T17:09:13;8.10;8.70
16271;DHT22;8243;49.048;8.396;2023-04-03T17:11:38;8.20;8.90
16271;DHT22;8243;49.048;8.396;2023-04-03T17:14:04;8.10;8.90
16271;DHT22;8243;49.048;8.396;2023-04-03T17:16:35;8.10;8.90
16271;DHT22;8243;49.048;8.396;2023-04-03T17:19:02;8.00;8.90
16271;DHT22;8243;49.048;8.396;2023-04-03T17:21:28;7.90;9.10
16271;DHT22;8243;49.048;8.396;2023-04-03T17:23:56;7.80;9.40
16271;DHT22;8243;49.048;8.396;2023-04-03T17:26:25;7.80;9.30
16271;DHT22;8243;49.048;8.396;2023-04-03T17:28:51;7.70;9.20
16271;DHT22;8243;49.048;8.396;2023-04-03T17:31:16;7.60;8.90
16271;DHT22;8243;49.048;8.396;2023-04-03T17:33:42;7.50;9.50
16271;DHT22;8243;49.048;8.396;2023-04-03T17:36:07;7.50;9.50
16271;DHT22;8243;49.048;8.396;2023-04-03T17:38:33;7.40;9.30
16271;DHT22;8243;49.048;8.396;2023-04-03T17:41:01;7.30;9.50
16271;DHT22;8243;49.048;8.396;2023-04-03T17:43:27;7.20;9.50
16271;DHT22;8243;49.048;8.396;2023-04-03T17:45:53;7.20;10.30
16271;DHT22;8243;49.048;8.396;2023-04-03T17:48:20;7.10;10.50
16271;DHT22;8243;49.048;8.396;2023-04-03T17:50:45;7.00;10.70
16271;DHT22;8243;49.048;8.396;2023-04-03T17:53:11;6.90;10.70
16271;DHT22;8243;49.048;8.396;2023-04-03T17:55:38;6.90;10.60